createdAt,value
2023-03-06T00:17:47.196Z,6.20
2023-03-06T00:31:07.783Z,6.05
2023-03-06T00:35:00.615Z,5.50
2023-03-06T00:38:53.258Z,6.32
2023-03-06T00:42:46.906Z,6.00
2023-03-06T00:46:39.568Z,5.82
2023-03-06T00:50:32.480Z,6.78
2023-03-06T00:54:53.017Z,5.55
2023-03-06T00:58:46.926Z,5.43
2023-03-06T01:02:56.509Z,5.57
2023-03-06T01:11:01.746Z,5.60
2023-03-06T01:14:54.927Z,5.60
2023-03-06T01:18:48.093Z,5.38
2023-03-06T01:22:40.976Z,5.65
2023-03-06T01:26:34.736Z,5.90
2023-03-06T01:30:27.613Z,6.03
2023-03-06T01:34:20.394Z,6.05
2023-03-06T01:42:34.617Z,7.30
2023-03-06T01:46:30.903Z,9.18
2023-03-06T01:50:24.092Z,6.85
2023-03-06T01:54:28.751Z,6.80
2023-03-06T01:58:22.612Z,6.65
2023-03-06T02:02:15.808Z,6.05
2023-03-06T02:06:09.580Z,6.30
2023-03-06T02:10:02.406Z,6.40
2023-03-06T02:13:55.575Z,5.35
2023-03-06T02:17:52.916Z,5.70
2023-03-06T02:21:45.716Z,5.32
2023-03-06T02:30:15.393Z,5.20
2023-03-06T02:34:40.026Z,5.13
2023-03-06T02:38:44.694Z,4.85
2023-03-06T02:42:37.369Z,4.60
2023-03-06T02:46:33.974Z,4.93
2023-03-06T02:54:55.328Z,4.20
2023-03-06T03:25:41.558Z,4.70
2023-03-06T03:29:34.744Z,6.03
2023-03-06T03:33:27.345Z,6.25
2023-03-06T03:37:20.147Z,5.68
2023-03-06T03:54:02.988Z,7.22
2023-03-06T03:57:56.007Z,8.60
2023-03-06T04:01:49.528Z,8.02
2023-03-06T04:05:42.660Z,7.22
2023-03-06T04:09:35.419Z,7.05
2023-03-06T04:13:28.388Z,6.78
2023-03-06T04:17:21.002Z,7.38
2023-03-06T04:21:14.695Z,6.85
2023-03-06T04:25:07.530Z,6.28
2023-03-06T04:29:00.240Z,6.70
2023-03-06T04:32:52.918Z,6.18
2023-03-06T04:36:45.901Z,6.43
2023-03-06T04:44:52.554Z,6.15
2023-03-06T04:53:22.773Z,5.55
2023-03-06T04:57:16.279Z,5.85
2023-03-06T05:01:09.251Z,6.07
2023-03-06T05:05:02.329Z,5.97
2023-03-06T05:13:09.857Z,5.65
2023-03-06T05:17:02.549Z,6.03
2023-03-06T05:20:59.628Z,6.40
2023-03-06T05:24:52.807Z,6.35
2023-03-06T05:28:45.784Z,6.20
2023-03-06T05:32:38.754Z,6.80
2023-03-06T05:36:31.532Z,5.97
2023-03-06T05:40:24.319Z,5.50
2023-03-06T05:52:58.927Z,6.95
2023-03-06T06:01:28.606Z,9.15
2023-03-06T06:05:21.299Z,9.00
2023-03-06T06:09:14.498Z,13.40
2023-03-06T06:13:07.515Z,8.00
2023-03-06T06:17:01.223Z,7.38
2023-03-06T06:25:15.467Z,7.75
2023-03-06T07:00:34.763Z,8.60
2023-03-06T07:04:27.365Z,9.38
2023-03-06T07:08:20.003Z,8.82
2023-03-06T07:12:12.773Z,8.85
2023-03-06T07:16:05.751Z,9.70
2023-03-06T07:19:59.784Z,8.20
2023-03-06T07:23:52.478Z,8.93
2023-03-06T07:27:51.055Z,8.13
2023-03-06T07:31:47.003Z,8.40
2023-03-06T07:35:41.441Z,7.93
2023-03-06T07:39:34.211Z,8.02
2023-03-06T07:43:27.046Z,8.20
2023-03-06T07:47:19.762Z,8.82
2023-03-06T07:51:18.371Z,8.80
2023-03-06T07:55:11.732Z,8.65
2023-03-06T07:59:04.395Z,9.32
2023-03-06T08:02:57.248Z,10.45
2023-03-06T08:06:49.876Z,11.10
2023-03-06T08:10:48.488Z,13.40
2023-03-06T08:14:41.181Z,11.77
2023-03-06T08:18:34.411Z,10.13
2023-03-06T08:22:27.215Z,9.95
2023-03-06T08:26:23.874Z,9.48
2023-03-06T08:30:16.684Z,10.43
2023-03-06T08:34:12.747Z,13.63
2023-03-06T08:38:05.363Z,10.57
2023-03-06T08:41:58.307Z,8.65
2023-03-06T08:45:55.846Z,8.75
2023-03-06T08:49:49.767Z,10.50
2023-03-06T08:53:44.541Z,9.40
2023-03-06T08:57:38.089Z,7.80
2023-03-06T09:01:34.667Z,7.95
2023-03-06T09:05:28.425Z,8.77
2023-03-06T09:09:21.715Z,8.50
2023-03-06T09:13:15.543Z,7.60
2023-03-06T09:17:09.227Z,8.57
2023-03-06T09:21:04.759Z,11.45
2023-03-06T09:24:58.442Z,11.57
2023-03-06T09:28:52.061Z,12.65
2023-03-06T09:32:46.314Z,11.02
2023-03-06T09:36:53.706Z,10.77
2023-03-06T09:40:58.168Z,11.25
2023-03-06T09:44:56.957Z,11.45
2023-03-06T09:49:16.121Z,10.35
2023-03-06T09:57:31.314Z,11.57
2023-03-06T10:01:29.018Z,12.02
2023-03-06T10:05:29.184Z,13.02
2023-03-06T10:09:28.848Z,14.95
2023-03-06T10:13:29.343Z,15.48
2023-03-06T10:17:24.121Z,13.25
2023-03-06T10:21:48.634Z,14.40
2023-03-06T10:26:16.217Z,14.85
2023-03-06T10:30:40.423Z,14.88
2023-03-06T10:34:38.666Z,12.75
2023-03-06T10:38:31.214Z,13.73
2023-03-06T10:42:24.924Z,11.82
2023-03-06T10:46:28.814Z,14.02
2023-03-06T10:50:27.862Z,14.13
2023-03-06T10:54:20.808Z,13.05
2023-03-06T10:58:27.193Z,13.50
2023-03-06T11:02:34.185Z,11.05
2023-03-06T11:06:37.934Z,11.85
2023-03-06T11:10:32.229Z,10.65
2023-03-06T11:14:27.474Z,10.73
2023-03-06T11:18:26.429Z,10.43
2023-03-06T11:22:22.196Z,10.88
2023-03-06T11:26:18.062Z,10.57
2023-03-06T11:30:20.370Z,10.85
2023-03-06T11:34:30.894Z,10.80
2023-03-06T11:38:38.160Z,11.02
2023-03-06T11:46:52.903Z,10.55
2023-03-06T11:54:38.419Z,18.02
2023-03-06T11:58:46.542Z,11.68
2023-03-06T12:07:07.537Z,12.85
2023-03-06T12:11:19.818Z,12.50
2023-03-06T12:15:38.678Z,12.18
2023-03-06T12:19:57.784Z,14.35
2023-03-06T12:24:12.586Z,13.50
2023-03-06T12:28:20.577Z,13.27
2023-03-06T12:36:33.804Z,12.07
2023-03-06T12:40:40.235Z,12.40
2023-03-06T12:44:49.663Z,12.52
2023-03-06T12:48:46.149Z,11.95
2023-03-06T12:52:38.838Z,12.27
2023-03-06T12:56:33.238Z,11.45
2023-03-06T13:00:35.377Z,11.75
2023-03-06T13:04:36.061Z,11.75
2023-03-06T13:08:37.721Z,12.15
2023-03-06T13:12:45.513Z,11.57
2023-03-06T13:20:44.302Z,11.65
2023-03-06T13:24:37.808Z,12.65
2023-03-06T13:28:40.827Z,10.77
2023-03-06T13:32:35.892Z,10.73
2023-03-06T13:36:39.916Z,11.43
2023-03-06T13:40:37.819Z,11.80
2023-03-06T13:44:30.984Z,11.38
2023-03-06T13:48:45.510Z,12.10
2023-03-06T13:52:53.686Z,18.63
2023-03-06T14:00:57.950Z,11.15
2023-03-06T14:04:56.426Z,12.40
2023-03-06T14:08:49.537Z,11.00
2023-03-06T14:12:51.758Z,11.65
2023-03-06T14:16:50.825Z,11.90
2023-03-06T14:20:48.795Z,11.07
2023-03-06T14:24:51.013Z,11.00
2023-03-06T14:28:46.105Z,11.20
2023-03-06T14:32:40.553Z,11.13
2023-03-06T14:36:49.130Z,11.85
2023-03-06T14:40:45.031Z,18.35
2023-03-06T14:44:37.544Z,15.50
2023-03-06T14:48:42.133Z,10.75
2023-03-06T14:52:35.484Z,11.15
2023-03-06T14:56:28.574Z,11.23
2023-03-06T15:00:24.206Z,11.48
2023-03-06T15:04:53.992Z,10.85
2023-03-06T15:08:49.409Z,12.07
2023-03-06T15:12:41.972Z,12.35
2023-03-06T15:16:34.903Z,12.05
2023-03-06T15:20:48.008Z,12.18
2023-03-06T15:24:40.683Z,12.25
2023-03-06T15:28:38.974Z,12.82
2023-03-06T15:32:34.728Z,11.80
2023-03-06T15:36:30.022Z,12.15
2023-03-06T15:40:25.523Z,12.05
2023-03-06T15:44:18.674Z,13.85
2023-03-06T15:48:17.703Z,14.45
2023-03-06T15:52:11.060Z,10.95
2023-03-06T15:56:03.804Z,12.50
2023-03-06T15:59:58.041Z,11.05
2023-03-06T16:03:50.993Z,11.35
2023-03-06T16:07:44.341Z,9.40
2023-03-06T16:11:43.798Z,11.00
2023-03-06T16:15:45.456Z,10.23
2023-03-06T16:19:38.244Z,10.32
2023-03-06T16:23:31.282Z,10.45
2023-03-06T16:27:26.154Z,10.77
2023-03-06T16:31:18.845Z,9.75
2023-03-06T16:35:12.940Z,11.13
2023-03-06T16:39:06.390Z,12.32
2023-03-06T16:42:59.674Z,11.23
2023-03-06T16:46:52.866Z,13.38
2023-03-06T16:50:46.636Z,10.77
2023-03-06T16:54:39.768Z,12.00
2023-03-06T16:58:33.318Z,14.00
2023-03-06T17:02:26.358Z,12.20
2023-03-06T17:06:22.145Z,12.38
2023-03-06T17:10:16.928Z,13.30
2023-03-06T17:14:09.949Z,13.00
2023-03-06T17:18:03.142Z,14.68
2023-03-06T17:21:56.302Z,14.00
2023-03-06T17:25:49.534Z,13.02
2023-03-06T17:29:42.860Z,14.60
2023-03-06T17:33:35.757Z,13.40
2023-03-06T17:37:29.298Z,13.23
2023-03-06T17:41:25.241Z,12.30
2023-03-06T17:45:18.610Z,12.60
2023-03-06T17:49:11.465Z,12.10
2023-03-06T17:53:04.665Z,11.77
2023-03-06T17:57:01.509Z,13.35
2023-03-06T18:00:56.258Z,12.60
2023-03-06T18:04:49.742Z,12.15
2023-03-06T18:08:44.159Z,12.90
2023-03-06T18:12:37.882Z,12.07
2023-03-06T18:16:31.439Z,12.48
2023-03-06T18:20:25.364Z,13.15
2023-03-06T18:24:18.986Z,14.07
2023-03-06T18:28:12.145Z,14.13
2023-03-06T18:32:06.075Z,15.90
2023-03-06T18:36:03.814Z,12.90
2023-03-06T18:39:57.749Z,13.25
2023-03-06T18:43:56.824Z,14.35
2023-03-06T18:47:50.175Z,14.82
2023-03-06T18:51:44.557Z,18.17
2023-03-06T18:55:39.165Z,16.70
2023-03-06T18:59:32.331Z,16.67
2023-03-06T19:03:26.315Z,15.73
2023-03-06T19:07:20.682Z,16.52
2023-03-06T19:11:16.414Z,15.73
2023-03-06T19:15:10.277Z,17.42
2023-03-06T19:19:03.994Z,16.85
2023-03-06T19:22:57.578Z,16.55
2023-03-06T19:26:53.636Z,16.85
2023-03-06T19:30:47.107Z,16.95
2023-03-06T19:34:40.825Z,16.92
2023-03-06T19:38:36.860Z,15.73
2023-03-06T19:42:31.927Z,16.27
2023-03-06T19:46:27.408Z,15.90
2023-03-06T19:50:22.660Z,14.60
2023-03-06T19:54:16.180Z,16.05
2023-03-06T19:58:09.574Z,14.85
2023-03-06T20:02:03.343Z,16.08
2023-03-06T20:05:56.670Z,17.38
2023-03-06T20:09:55.064Z,19.40
2023-03-06T20:13:49.121Z,17.25
2023-03-06T20:17:42.650Z,16.75
2023-03-06T20:21:38.345Z,16.00
2023-03-06T20:25:32.366Z,16.83
2023-03-06T20:29:28.203Z,17.77
2023-03-06T20:33:23.994Z,18.05
2023-03-06T20:37:17.840Z,16.42
2023-03-06T20:41:37.922Z,15.38
2023-03-06T20:45:32.632Z,14.20
2023-03-06T20:49:32.230Z,14.52
2023-03-06T20:53:25.228Z,13.98
2023-03-06T20:57:22.442Z,13.40
2023-03-06T21:01:24.845Z,14.88
2023-03-06T21:05:18.333Z,14.75
2023-03-06T21:09:11.904Z,14.55
2023-03-06T21:13:04.927Z,16.35
2023-03-06T21:16:57.623Z,15.77
2023-03-06T21:20:51.442Z,15.65
2023-03-06T21:24:45.436Z,15.85
2023-03-06T21:28:38.409Z,15.45
2023-03-06T21:32:32.212Z,15.63
2023-03-06T21:36:26.087Z,15.43
2023-03-06T21:40:19.104Z,15.38
2023-03-06T21:44:11.722Z,15.23
2023-03-06T21:48:04.862Z,15.30
2023-03-06T21:51:57.580Z,16.33
2023-03-06T21:55:50.176Z,16.67
2023-03-06T21:59:42.910Z,16.75
2023-03-06T22:03:35.846Z,16.88
2023-03-06T22:07:29.271Z,15.35
2023-03-06T22:11:24.101Z,16.50
2023-03-06T22:15:17.104Z,17.58
2023-03-06T22:19:09.656Z,16.15
2023-03-06T22:23:02.480Z,17.13
2023-03-06T22:26:55.112Z,17.05
2023-03-06T22:30:47.721Z,16.05
2023-03-06T22:35:06.452Z,17.05
2023-03-06T23:55:39.669Z,18.63
2023-03-06T23:59:33.154Z,21.92
